Time;durP1;ratioP1;P1;durP2;ratioP2;P2;SDS_P1;SDS_P2;PMS_P1;PMS_P2;Temp;Humidity;BMP_temperature;BMP_pressure;BME280_temperature;BME280_humidity;BME280_pressure;Samples;Min_cycle;Max_cycle;Signal;HPM_P1;HPM_P2
2021/01/27 00:01:11;;;;;;;17.90;8.68;;;;;;;;;;1799888;80;21121;-73
2021/01/27 00:03:38;;;;;;;15.45;8.13;;;;;;;;;;1799967;80;21588;-74
2021/01/27 00:06:04;;;;;;;19.25;8.75;;;;;;;;;;1800233;80;21161;-73
2021/01/27 00:08:30;;;;;;;17.98;8.85;;;;;;;;;;1800068;80;21173;-74
2021/01/27 00:10:56;;;;;;;19.35;9.08;;;;;;;;;;1799865;80;21184;-74
2021/01/27 00:13:22;;;;;;;20.57;9.40;;;;;;;;;;1799915;80;21228;-74
2021/01/27 00:15:48;;;;;;;20.95;10.53;;;;;;;;;;1800050;80;21129;-75
2021/01/27 00:18:17;;;;;;;18.92;9.45;;;;;;;;;;1799941;80;21167;-75
2021/01/27 00:20:43;;;;;;;19.73;8.78;;;;;;;;;;1799793;80;21113;-73
2021/01/27 00:23:10;;;;;;;18.85;9.05;;;;;;;;;;1800067;80;21184;-74
2021/01/27 00:25:36;;;;;;;18.90;10.15;;;;;;;;;;1799822;80;21182;-74
2021/01/27 00:28:02;;;;;;;20.15;9.05;;;;;;;;;;1799819;80;21517;-74
2021/01/27 00:30:30;;;;;;;15.75;9.00;;;;;;;;;;1807196;79;21613;-73
2021/01/27 00:32:56;;;;;;;19.62;9.30;;;;;;;;;;1787926;80;21569;-74
2021/01/27 00:35:25;;;;;;;18.75;9.00;;;;;;;;;;1821515;79;21106;-74
2021/01/27 00:37:53;;;;;;;17.98;8.98;;;;;;;;;;1787752;80;21135;-74
2021/01/27 00:40:19;;;;;;;20.55;8.98;;;;;;;;;;1821439;79;21157;-73
2021/01/27 00:42:46;;;;;;;16.32;9.13;;;;;;;;;;1787530;79;21158;-74
2021/01/27 00:45:12;;;;;;;18.00;8.88;;;;;;;;;;1838004;76;21175;-74
2021/01/27 00:47:38;;;;;;;19.42;9.18;;;;;;;;;;1840121;78;21152;-74
2021/01/27 00:50:05;;;;;;;18.65;9.48;;;;;;;;;;1840125;78;21256;-75
2021/01/27 00:52:32;;;;;;;20.62;9.13;;;;;;;;;;1839996;78;21140;-75
2021/01/27 00:54:58;;;;;;;18.55;9.20;;;;;;;;;;1840258;78;21117;-74
2021/01/27 00:57:24;;;;;;;17.52;8.43;;;;;;;;;;1837693;78;21553;-74
2021/01/27 00:59:50;;;;;;;19.05;8.90;;;;;;;;;;1818471;79;21128;-73
2021/01/27 01:02:16;;;;;;;16.20;7.17;;;;;;;;;;1823242;79;21555;-74
2021/01/27 01:04:42;;;;;;;13.65;7.37;;;;;;;;;;1823332;79;21124;-73
2021/01/27 01:07:08;;;;;;;14.63;7.95;;;;;;;;;;1823314;79;21536;-74
2021/01/27 01:09:35;;;;;;;16.93;7.62;;;;;;;;;;1823339;79;21151;-75
2021/01/27 01:12:01;;;;;;;19.85;8.48;;;;;;;;;;1823332;79;21575;-73
2021/01/27 01:14:28;;;;;;;15.70;7.20;;;;;;;;;;1823162;79;21097;-73
2021/01/27 01:16:54;;;;;;;15.13;8.08;;;;;;;;;;1823639;79;21539;-74
2021/01/27 01:19:21;;;;;;;13.95;7.17;;;;;;;;;;1823196;79;21179;-74
2021/01/27 01:21:47;;;;;;;15.18;7.08;;;;;;;;;;1823196;79;21555;-73
2021/01/27 01:24:13;;;;;;;14.65;7.78;;;;;;;;;;1823402;79;21121;-75
2021/01/27 01:26:39;;;;;;;14.33;7.42;;;;;;;;;;1823157;79;21156;-73
2021/01/27 01:29:05;;;;;;;14.10;7.25;;;;;;;;;;1823350;79;21119;-74
2021/01/27 01:31:31;;;;;;;15.25;7.08;;;;;;;;;;1836481;78;21140;-74
2021/01/27 01:33:57;;;;;;;15.05;6.78;;;;;;;;;;1840200;78;21536;-73
2021/01/27 01:36:24;;;;;;;14.05;7.15;;;;;;;;;;1839958;78;21138;-74
2021/01/27 01:38:50;;;;;;;12.95;7.20;;;;;;;;;;1840103;78;21144;-74
2021/01/27 01:41:16;;;;;;;15.55;7.53;;;;;;;;;;1839985;78;21145;-74
2021/01/27 01:43:42;;;;;;;15.60;7.67;;;;;;;;;;1840147;78;21113;-75
2021/01/27 01:46:15;;;;;;;16.23;7.45;;;;;;;;;;1840058;78;21552;-73
2021/01/27 01:48:45;;;;;;;16.17;7.78;;;;;;;;;;1839997;78;21124;-74
2021/01/27 01:51:16;;;;;;;15.98;7.08;;;;;;;;;;1840055;78;21145;-73
2021/01/27 01:53:42;;;;;;;16.23;7.40;;;;;;;;;;1840286;78;21155;-75
2021/01/27 01:56:10;;;;;;;13.18;6.80;;;;;;;;;;1840233;78;21623;-75
2021/01/27 01:58:37;;;;;;;14.40;7.65;;;;;;;;;;1840097;78;21738;-75
2021/01/27 02:01:03;;;;;;;17.67;8.30;;;;;;;;;;1840246;78;21148;-75
2021/01/27 02:03:29;;;;;;;13.08;7.25;;;;;;;;;;1840543;78;21159;-74
2021/01/27 02:05:56;;;;;;;16.40;6.95;;;;;;;;;;1840255;78;21141;-75
2021/01/27 02:08:22;;;;;;;15.48;7.62;;;;;;;;;;1839965;78;21128;-75
2021/01/27 02:10:49;;;;;;;13.70;6.80;;;;;;;;;;1840074;78;21180;-73
2021/01/27 02:13:16;;;;;;;14.78;7.00;;;;;;;;;;1840047;78;21136;-74
2021/01/27 02:15:45;;;;;;;15.35;7.45;;;;;;;;;;1838833;78;21141;-76
2021/01/27 02:18:29;;;;;;;16.75;7.70;;;;;;;;;;1840214;78;21151;-74
2021/01/27 02:21:14;;;;;;;17.12;7.75;;;;;;;;;;1840171;78;21141;-75
2021/01/27 02:23:58;;;;;;;16.83;7.23;;;;;;;;;;1840322;78;21654;-74
2021/01/27 02:26:29;;;;;;;16.43;7.23;;;;;;;;;;1840478;78;21129;-74
2021/01/27 02:28:57;;;;;;;16.57;7.42;;;;;;;;;;1840225;78;21101;-73
2021/01/27 02:31:40;;;;;;;13.98;7.42;;;;;;;;;;1854861;77;21131;-74
2021/01/27 02:34:09;;;;;;;14.50;7.05;;;;;;;;;;1860525;77;21165;-74
2021/01/27 02:36:43;;;;;;;13.40;7.10;;;;;;;;;;1860266;77;21115;-73
2021/01/27 02:39:11;;;;;;;15.03;7.53;;;;;;;;;;1860792;77;21195;-72
2021/01/27 02:41:40;;;;;;;16.93;7.92;;;;;;;;;;1860124;77;21100;-73
2021/01/27 02:44:08;;;;;;;13.40;6.95;;;;;;;;;;1860613;77;21147;-74
2021/01/27 02:46:39;;;;;;;15.70;7.05;;;;;;;;;;1858196;77;21104;-73
2021/01/27 02:49:25;;;;;;;14.60;6.10;;;;;;;;;;1856174;77;21174;-75
2021/01/27 02:52:05;;;;;;;17.60;7.17;;;;;;;;;;1857450;77;21167;-73
2021/01/27 02:54:42;;;;;;;12.28;6.08;;;;;;;;;;1857500;77;21138;-73
2021/01/27 02:57:10;;;;;;;18.00;6.97;;;;;;;;;;1857537;77;21139;-72
2021/01/27 02:59:38;;;;;;;15.85;7.00;;;;;;;;;;1857274;77;21540;-75
2021/01/27 03:02:06;;;;;;;15.90;7.08;;;;;;;;;;1857383;77;21587;-74
2021/01/27 03:04:36;;;;;;;14.98;6.85;;;;;;;;;;1857474;77;21127;-74
2021/01/27 03:07:02;;;;;;;19.05;7.72;;;;;;;;;;1857535;77;21131;-74
2021/01/27 03:09:30;;;;;;;15.15;7.50;;;;;;;;;;1857483;77;21127;-74
2021/01/27 03:11:56;;;;;;;14.70;6.42;;;;;;;;;;1846687;77;21100;-73
2021/01/27 03:14:22;;;;;;;15.60;7.20;;;;;;;;;;1857374;77;21151;-73
2021/01/27 03:16:53;;;;;;;19.52;9.75;;;;;;;;;;1857443;77;21132;-73
2021/01/27 03:19:21;;;;;;;16.93;8.28;;;;;;;;;;1856090;77;21135;-73
2021/01/27 03:21:49;;;;;;;17.20;7.58;;;;;;;;;;1857404;77;21136;-73
2021/01/27 03:24:19;;;;;;;16.62;8.40;;;;;;;;;;1857771;77;21154;-74
2021/01/27 03:26:53;;;;;;;14.63;7.37;;;;;;;;;;1857580;77;21273;-74
2021/01/27 03:29:21;;;;;;;16.48;7.53;;;;;;;;;;1857746;77;21261;-73
2021/01/27 03:31:47;;;;;;;15.03;7.90;;;;;;;;;;1857296;77;21147;-74
2021/01/27 03:34:15;;;;;;;19.25;8.40;;;;;;;;;;1857844;77;21150;-73
2021/01/27 03:36:43;;;;;;;17.60;8.25;;;;;;;;;;1846960;77;21139;-74
2021/01/27 03:39:11;;;;;;;17.87;8.63;;;;;;;;;;1857938;77;21143;-73
2021/01/27 03:41:39;;;;;;;17.35;8.45;;;;;;;;;;1857554;77;21135;-73
2021/01/27 03:44:10;;;;;;;17.00;8.63;;;;;;;;;;1857686;77;21128;-74
2021/01/27 03:46:38;;;;;;;19.37;8.15;;;;;;;;;;1854318;77;21198;-73
2021/01/27 03:49:05;;;;;;;16.85;7.83;;;;;;;;;;1852290;77;21124;-74
2021/01/27 03:51:33;;;;;;;17.87;7.95;;;;;;;;;;1852517;77;21278;-73
2021/01/27 03:54:00;;;;;;;18.30;8.13;;;;;;;;;;1852190;77;21140;-75
2021/01/27 03:56:31;;;;;;;16.02;7.95;;;;;;;;;;1852239;77;21139;-74
2021/01/27 03:58:57;;;;;;;15.90;7.53;;;;;;;;;;1852492;77;21151;-75
2021/01/27 04:01:23;;;;;;;17.32;7.75;;;;;;;;;;1827523;77;21131;-74
2021/01/27 04:03:53;;;;;;;17.67;7.17;;;;;;;;;;1802575;79;21143;-76
2021/01/27 04:06:20;;;;;;;15.28;6.95;;;;;;;;;;1790844;80;21131;-73
2021/01/27 04:08:46;;;;;;;14.95;7.67;;;;;;;;;;1790934;80;21535;-73
2021/01/27 04:11:12;;;;;;;13.18;6.05;;;;;;;;;;1791170;80;21118;-73
2021/01/27 04:13:38;;;;;;;15.38;7.17;;;;;;;;;;1790664;78;21178;-73
2021/01/27 04:16:05;;;;;;;14.07;6.70;;;;;;;;;;1790858;80;21167;-73
2021/01/27 04:18:31;;;;;;;11.05;6.15;;;;;;;;;;1790951;80;21155;-74
2021/01/27 04:20:57;;;;;;;10.43;5.78;;;;;;;;;;1790882;80;21138;-72
2021/01/27 04:23:23;;;;;;;13.80;6.67;;;;;;;;;;1791237;80;21115;-72
2021/01/27 04:25:49;;;;;;;15.68;6.95;;;;;;;;;;1790979;80;21132;-73
2021/01/27 04:28:16;;;;;;;16.50;7.42;;;;;;;;;;1791065;80;21115;-74
2021/01/27 04:30:42;;;;;;;12.58;6.35;;;;;;;;;;1812290;78;21160;-72
2021/01/27 04:33:09;;;;;;;12.47;5.95;;;;;;;;;;1840108;78;21148;-72
2021/01/27 04:35:35;;;;;;;13.35;6.62;;;;;;;;;;1840110;78;21758;-73
2021/01/27 04:38:01;;;;;;;12.75;6.22;;;;;;;;;;1840573;78;21160;-73
2021/01/27 04:40:28;;;;;;;13.43;6.08;;;;;;;;;;1840106;78;21565;-74
2021/01/27 04:42:55;;;;;;;13.55;6.92;;;;;;;;;;1840013;78;21124;-73
2021/01/27 04:45:21;;;;;;;14.15;6.95;;;;;;;;;;1840111;78;21117;-74
2021/01/27 04:48:04;;;;;;;13.88;7.20;;;;;;;;;;1840121;78;21184;-73
2021/01/27 04:50:31;;;;;;;14.98;6.37;;;;;;;;;;1840119;78;21132;-75
2021/01/27 04:53:02;;;;;;;12.63;6.22;;;;;;;;;;1840001;78;21132;-73
2021/01/27 04:55:30;;;;;;;13.25;6.25;;;;;;;;;;1840399;78;21156;-73
2021/01/27 04:58:16;;;;;;;13.90;6.60;;;;;;;;;;1840134;78;21279;-74
2021/01/27 05:00:51;;;;;;;13.65;7.15;;;;;;;;;;1840051;77;21136;-72
2021/01/27 05:03:37;;;;;;;12.58;6.17;;;;;;;;;;1840678;78;21172;-72
2021/01/27 05:06:04;;;;;;;12.20;6.12;;;;;;;;;;1839743;78;21541;-73
2021/01/27 05:08:31;;;;;;;11.97;5.70;;;;;;;;;;1840059;78;21113;-74
2021/01/27 05:10:59;;;;;;;12.03;6.25;;;;;;;;;;1840298;78;21172;-72
2021/01/27 05:13:29;;;;;;;12.98;6.30;;;;;;;;;;1840376;78;21101;-74
2021/01/27 05:15:56;;;;;;;12.43;6.65;;;;;;;;;;1839938;78;21129;-72
2021/01/27 05:18:23;;;;;;;12.55;6.40;;;;;;;;;;1839960;78;21136;-73
2021/01/27 05:20:49;;;;;;;14.75;6.53;;;;;;;;;;1840065;78;21168;-75
2021/01/27 05:23:15;;;;;;;14.28;6.83;;;;;;;;;;1840254;78;21194;-75
2021/01/27 05:25:43;;;;;;;14.83;6.40;;;;;;;;;;1839984;78;21169;-75
2021/01/27 05:28:09;;;;;;;13.80;7.30;;;;;;;;;;1840164;78;21160;-75
2021/01/27 05:30:46;;;;;;;12.45;6.00;;;;;;;;;;1814794;77;21128;-73
2021/01/27 05:33:12;;;;;;;13.70;6.25;;;;;;;;;;1851612;77;21151;-74
2021/01/27 05:35:39;;;;;;;18.32;6.78;;;;;;;;;;1851708;77;21175;-73
2021/01/27 05:38:23;;;;;;;13.93;6.22;;;;;;;;;;1851768;77;21120;-73
2021/01/27 05:40:50;;;;;;;12.30;6.17;;;;;;;;;;1851581;77;21281;-73
2021/01/27 05:43:17;;;;;;;11.38;5.95;;;;;;;;;;1851699;77;21536;-74
2021/01/27 05:45:45;;;;;;;12.60;6.30;;;;;;;;;;1851248;77;21155;-73
2021/01/27 05:48:13;;;;;;;11.43;6.90;;;;;;;;;;1845754;78;21231;-76
2021/01/27 05:50:40;;;;;;;14.30;6.28;;;;;;;;;;1845710;78;21318;-74
2021/01/27 05:53:14;;;;;;;13.90;7.17;;;;;;;;;;1845618;78;21164;-73
2021/01/27 05:56:00;;;;;;;15.65;7.67;;;;;;;;;;1845796;78;21497;-73
2021/01/27 05:58:26;;;;;;;15.23;7.33;;;;;;;;;;1845681;78;21132;-74
2021/01/27 06:00:52;;;;;;;15.60;7.58;;;;;;;;;;1845605;78;21157;-73
2021/01/27 06:03:20;;;;;;;18.30;8.03;;;;;;;;;;1845755;78;21710;-72
2021/01/27 06:05:49;;;;;;;17.65;8.28;;;;;;;;;;1845607;78;21247;-73
2021/01/27 06:08:17;;;;;;;9.53;5.37;;;;;;;;;;1845715;78;21136;-73
2021/01/27 06:10:43;;;;;;;12.33;7.12;;;;;;;;;;1827093;78;21135;-74
2021/01/27 06:13:14;;;;;;;11.22;4.12;;;;;;;;;;1808058;79;21572;-74
2021/01/27 06:15:40;;;;;;;14.58;7.85;;;;;;;;;;1807681;79;21128;-75
2021/01/27 06:18:08;;;;;;;16.55;7.25;;;;;;;;;;1807771;79;21144;-73
2021/01/27 06:20:34;;;;;;;14.45;7.60;;;;;;;;;;1805892;77;21142;-72
2021/01/27 06:23:19;;;;;;;20.82;8.98;;;;;;;;;;1807645;79;21556;-74
2021/01/27 06:25:51;;;;;;;12.85;6.67;;;;;;;;;;1807605;79;21116;-74
2021/01/27 06:28:27;;;;;;;17.55;8.95;;;;;;;;;;1808232;77;21144;-74
2021/01/27 06:31:12;;;;;;;14.00;6.92;;;;;;;;;;1818619;78;21077;-74
2021/01/27 06:33:49;;;;;;;8.63;5.00;;;;;;;;;;1802158;78;21120;-74
2021/01/27 06:36:25;;;;;;;16.60;7.45;;;;;;;;;;1818648;77;21516;-74
2021/01/27 06:38:53;;;;;;;12.33;6.75;;;;;;;;;;1822954;77;21176;-73
2021/01/27 06:41:37;;;;;;;15.13;7.05;;;;;;;;;;1833506;77;21113;-76
2021/01/27 06:44:05;;;;;;;17.97;7.37;;;;;;;;;;1845522;77;21572;-76
2021/01/27 06:46:42;;;;;;;11.25;6.20;;;;;;;;;;1843824;77;21309;-74
2021/01/27 06:49:10;;;;;;;13.48;6.72;;;;;;;;;;1857205;77;21140;-73
2021/01/27 06:51:48;;;;;;;15.88;7.10;;;;;;;;;;1857029;77;21754;-79
2021/01/27 06:54:32;;;;;;;19.67;7.60;;;;;;;;;;1855817;77;21140;-76
2021/01/27 06:57:06;;;;;;;12.75;6.47;;;;;;;;;;1847640;77;21124;-73
2021/01/27 06:59:43;;;;;;;22.95;8.13;;;;;;;;;;1815852;77;21171;-74
2021/01/27 07:02:28;;;;;;;17.55;7.62;;;;;;;;;;1825505;77;21250;-77
2021/01/27 07:04:56;;;;;;;12.60;5.53;;;;;;;;;;1822082;79;21519;-74
2021/01/27 07:07:30;;;;;;;19.32;8.20;;;;;;;;;;1833067;77;21222;-76
2021/01/27 07:09:58;;;;;;;16.05;7.75;;;;;;;;;;1829738;77;21169;-73
2021/01/27 07:12:26;;;;;;;13.60;7.00;;;;;;;;;;1793593;79;21535;-76
2021/01/27 07:14:54;;;;;;;10.55;5.12;;;;;;;;;;1819584;79;21274;-73
2021/01/27 07:17:28;;;;;;;19.00;8.33;;;;;;;;;;1821561;77;21149;-74
2021/01/27 07:20:03;;;;;;;19.85;8.30;;;;;;;;;;1856859;77;21575;-72
2021/01/27 07:22:30;;;;;;;15.07;5.93;;;;;;;;;;1857433;77;21203;-73
2021/01/27 07:24:58;;;;;;;13.15;6.03;;;;;;;;;;1857508;77;21172;-74
2021/01/27 07:27:25;;;;;;;14.55;7.87;;;;;;;;;;1857191;77;21274;-75
2021/01/27 07:29:55;;;;;;;20.45;8.08;;;;;;;;;;1857767;77;21167;-76
2021/01/27 07:32:23;;;;;;;14.35;6.97;;;;;;;;;;1856190;77;21592;-75
2021/01/27 07:34:57;;;;;;;10.68;5.80;;;;;;;;;;1853156;77;21610;-74
2021/01/27 07:37:25;;;;;;;25.27;8.85;;;;;;;;;;1837910;77;21124;-73
2021/01/27 07:40:06;;;;;;;14.83;7.83;;;;;;;;;;1837943;77;21278;-73
2021/01/27 07:42:49;;;;;;;12.07;7.25;;;;;;;;;;1837740;78;21136;-73
2021/01/27 07:45:17;;;;;;;15.65;7.90;;;;;;;;;;1837797;77;21582;-73
2021/01/27 07:48:02;;;;;;;17.48;9.13;;;;;;;;;;1844871;77;21587;-75
2021/01/27 07:50:30;;;;;;;16.75;7.28;;;;;;;;;;1848981;77;21136;-75
2021/01/27 07:52:59;;;;;;;17.30;8.65;;;;;;;;;;1849029;77;21132;-75
2021/01/27 07:55:25;;;;;;;12.40;6.85;;;;;;;;;;1848966;77;21109;-75
2021/01/27 07:58:05;;;;;;;11.88;6.67;;;;;;;;;;1848907;77;21604;-73
2021/01/27 08:00:36;;;;;;;22.17;8.70;;;;;;;;;;1849262;77;21155;-76
2021/01/27 08:03:14;;;;;;;14.87;7.28;;;;;;;;;;1848775;77;21563;-76
2021/01/27 08:05:40;;;;;;;12.18;5.97;;;;;;;;;;1848847;77;21608;-75
2021/01/27 08:08:08;;;;;;;16.75;7.47;;;;;;;;;;1849188;77;21136;-75
2021/01/27 08:10:34;;;;;;;12.35;5.80;;;;;;;;;;1856160;77;21132;-75
2021/01/27 08:13:01;;;;;;;15.08;7.58;;;;;;;;;;1857155;77;21187;-73
2021/01/27 08:15:29;;;;;;;15.03;6.72;;;;;;;;;;1857522;77;21143;-75
2021/01/27 08:17:58;;;;;;;17.45;7.85;;;;;;;;;;1857485;77;21119;-76
2021/01/27 08:20:31;;;;;;;18.98;9.33;;;;;;;;;;1857333;77;21131;-76
2021/01/27 08:23:02;;;;;;;14.75;6.97;;;;;;;;;;1857276;77;21574;-74
2021/01/27 08:25:46;;;;;;;21.17;9.33;;;;;;;;;;1857644;77;21139;-74
2021/01/27 08:28:31;;;;;;;16.73;7.95;;;;;;;;;;1857352;77;21123;-74
2021/01/27 08:31:16;;;;;;;14.37;6.47;;;;;;;;;;1857535;77;21562;-76
2021/01/27 08:33:50;;;;;;;19.27;7.87;;;;;;;;;;1856274;77;21120;-76
2021/01/27 08:36:21;;;;;;;18.77;9.38;;;;;;;;;;1857303;77;21307;-75
2021/01/27 08:38:58;;;;;;;10.63;6.12;;;;;;;;;;1856637;77;21128;-74
2021/01/27 08:41:41;;;;;;;12.75;5.90;;;;;;;;;;1857135;77;21151;-76
2021/01/27 08:44:09;;;;;;;10.63;5.62;;;;;;;;;;1857341;77;21156;-76
2021/01/27 08:46:43;;;;;;;9.88;5.05;;;;;;;;;;1857095;77;21577;-75
2021/01/27 08:49:09;;;;;;;9.53;4.60;;;;;;;;;;1857454;77;21532;-75
2021/01/27 08:51:43;;;;;;;7.20;3.15;;;;;;;;;;1857512;77;21587;-77
2021/01/27 08:54:23;;;;;;;10.48;4.53;;;;;;;;;;1857243;77;21124;-76
2021/01/27 08:57:07;;;;;;;6.80;3.70;;;;;;;;;;1857474;77;21535;-77
2021/01/27 08:59:33;;;;;;;10.40;4.33;;;;;;;;;;1857432;77;21764;-75
2021/01/27 09:02:00;;;;;;;7.20;3.92;;;;;;;;;;1857389;77;21140;-75
2021/01/27 09:04:36;;;;;;;6.72;4.25;;;;;;;;;;1857294;77;21121;-74
2021/01/27 09:07:06;;;;;;;9.95;3.92;;;;;;;;;;1857547;77;21151;-74
2021/01/27 09:09:38;;;;;;;10.85;5.28;;;;;;;;;;1848540;77;21135;-74
2021/01/27 09:12:01;;;;;;;8.15;4.80;;;;;;;;;;1837254;77;21093;-74
2021/01/27 09:14:27;;;;;;;10.28;4.05;;;;;;;;;;1837607;77;21128;-75
2021/01/27 09:16:54;;;;;;;7.30;3.77;;;;;;;;;;1837748;77;21131;-74
2021/01/27 09:19:21;;;;;;;7.20;4.45;;;;;;;;;;1837723;78;21123;-74
2021/01/27 09:22:04;;;;;;;6.37;3.85;;;;;;;;;;1837750;77;21571;-74
2021/01/27 09:24:32;;;;;;;7.92;3.62;;;;;;;;;;1837707;77;21124;-74
2021/01/27 09:26:58;;;;;;;10.65;4.30;;;;;;;;;;1837688;77;21128;-74
2021/01/27 09:29:26;;;;;;;8.90;4.60;;;;;;;;;;1837977;78;21135;-76
2021/01/27 09:31:52;;;;;;;6.55;4.22;;;;;;;;;;1837836;78;21539;-74
2021/01/27 09:34:27;;;;;;;8.20;4.53;;;;;;;;;;1837646;77;21147;-76
2021/01/27 09:37:11;;;;;;;8.38;4.42;;;;;;;;;;1838311;78;21152;-76
2021/01/27 09:39:38;;;;;;;7.20;4.05;;;;;;;;;;1838038;78;21266;-77
2021/01/27 09:42:13;;;;;;;10.72;4.80;;;;;;;;;;1837707;78;21136;-75
2021/01/27 09:44:39;;;;;;;6.80;4.25;;;;;;;;;;1837862;78;21566;-76
2021/01/27 09:47:09;;;;;;;7.85;4.75;;;;;;;;;;1839960;77;21144;-77
2021/01/27 09:49:39;;;;;;;9.05;4.30;;;;;;;;;;1852158;77;21591;-76
2021/01/27 09:52:04;;;;;;;6.87;3.95;;;;;;;;;;1851912;77;21536;-76
2021/01/27 09:54:30;;;;;;;8.50;3.72;;;;;;;;;;1852156;77;21129;-77
2021/01/27 09:56:58;;;;;;;9.25;4.33;;;;;;;;;;1852398;77;21104;-75
2021/01/27 09:59:25;;;;;;;9.25;4.15;;;;;;;;;;1852296;77;21128;-74
2021/01/27 10:01:51;;;;;;;6.92;4.20;;;;;;;;;;1852114;77;21148;-74
2021/01/27 10:04:19;;;;;;;5.53;3.50;;;;;;;;;;1852125;77;21159;-75
2021/01/27 10:06:47;;;;;;;8.80;4.12;;;;;;;;;;1850259;77;21568;-74
2021/01/27 10:09:28;;;;;;;6.75;4.17;;;;;;;;;;1854680;77;21570;-74
2021/01/27 10:12:02;;;;;;;7.80;4.35;;;;;;;;;;1860036;77;21129;-74
2021/01/27 10:14:29;;;;;;;6.17;3.95;;;;;;;;;;1849272;77;21147;-74
2021/01/27 10:16:56;;;;;;;5.50;4.05;;;;;;;;;;1860414;77;21124;-76
2021/01/27 10:19:23;;;;;;;8.33;4.58;;;;;;;;;;1860690;77;21147;-76
2021/01/27 10:21:51;;;;;;;5.90;2.98;;;;;;;;;;1860608;77;21140;-75
2021/01/27 10:24:35;;;;;;;5.53;4.25;;;;;;;;;;1860464;77;21266;-74
2021/01/27 10:27:03;;;;;;;11.45;5.08;;;;;;;;;;1860483;77;21182;-74
2021/01/27 10:29:36;;;;;;;8.75;4.83;;;;;;;;;;1860740;77;21175;-77
2021/01/27 10:32:19;;;;;;;6.65;4.40;;;;;;;;;;1860441;77;21567;-74
2021/01/27 10:34:46;;;;;;;7.40;4.10;;;;;;;;;;1860497;77;21559;-74
2021/01/27 10:37:26;;;;;;;7.25;4.03;;;;;;;;;;1860390;77;21269;-74
2021/01/27 10:40:10;;;;;;;7.28;2.95;;;;;;;;;;1860418;77;21151;-78
2021/01/27 10:42:41;;;;;;;5.20;3.20;;;;;;;;;;1860239;77;21052;-77
2021/01/27 10:45:18;;;;;;;6.97;3.50;;;;;;;;;;1859290;77;21222;-76
2021/01/27 10:47:44;;;;;;;6.05;4.22;;;;;;;;;;1860177;77;21567;-77
2021/01/27 10:50:11;;;;;;;8.25;3.70;;;;;;;;;;1860719;77;21139;-77
2021/01/27 10:52:37;;;;;;;6.47;3.85;;;;;;;;;;1860518;77;21159;-77
2021/01/27 10:55:05;;;;;;;4.65;3.22;;;;;;;;;;1860779;77;21128;-77
2021/01/27 10:57:31;;;;;;;6.87;3.42;;;;;;;;;;1860600;77;21908;-76
2021/01/27 10:59:57;;;;;;;6.60;3.80;;;;;;;;;;1860404;77;21127;-76
2021/01/27 11:02:24;;;;;;;6.08;3.60;;;;;;;;;;1860425;77;21131;-77
2021/01/27 11:04:51;;;;;;;5.37;3.02;;;;;;;;;;1860428;77;21137;-77
2021/01/27 11:07:17;;;;;;;4.95;3.30;;;;;;;;;;1860434;77;21133;-75
2021/01/27 11:09:45;;;;;;;5.72;3.83;;;;;;;;;;1856095;77;21556;-77
2021/01/27 11:12:12;;;;;;;6.53;4.15;;;;;;;;;;1852211;77;21108;-78
2021/01/27 11:14:38;;;;;;;6.05;3.75;;;;;;;;;;1852342;77;21108;-77
2021/01/27 11:17:04;;;;;;;5.28;3.47;;;;;;;;;;1852074;77;21140;-77
2021/01/27 11:19:30;;;;;;;5.15;3.70;;;;;;;;;;1852132;77;21136;-77
2021/01/27 11:21:56;;;;;;;7.00;3.87;;;;;;;;;;1852187;77;21124;-78
2021/01/27 11:24:23;;;;;;;10.05;3.30;;;;;;;;;;1852166;77;21568;-77
2021/01/27 11:26:49;;;;;;;6.55;3.55;;;;;;;;;;1852218;77;21176;-78
2021/01/27 11:29:15;;;;;;;5.08;3.55;;;;;;;;;;1852052;77;21579;-76
2021/01/27 11:31:41;;;;;;;5.47;3.72;;;;;;;;;;1852224;77;21611;-77
2021/01/27 11:34:07;;;;;;;7.05;4.40;;;;;;;;;;1844370;77;21116;-75
2021/01/27 11:36:34;;;;;;;6.03;3.83;;;;;;;;;;1816521;79;21683;-75
2021/01/27 11:39:01;;;;;;;8.63;4.17;;;;;;;;;;1816408;79;21164;-76
2021/01/27 11:41:28;;;;;;;7.08;4.62;;;;;;;;;;1816790;79;21147;-77
2021/01/27 11:43:54;;;;;;;8.43;4.40;;;;;;;;;;1816731;79;21192;-77
2021/01/27 11:46:21;;;;;;;6.22;3.80;;;;;;;;;;1816654;79;21144;-77
2021/01/27 11:48:47;;;;;;;5.87;3.83;;;;;;;;;;1817052;78;21177;-74
2021/01/27 11:51:28;;;;;;;;;;;;;;;;;;;;;
2021/01/27 11:54:08;;;;;;;6.35;3.85;;;;;;;;;;1734095;82;21406;-74
2021/01/27 11:56:40;;;;;;;5.90;4.12;;;;;;;;;;1734296;83;21131;-75
2021/01/27 11:59:15;;;;;;;7.10;4.30;;;;;;;;;;1713013;83;21171;-75
2021/01/27 12:01:41;;;;;;;6.17;3.98;;;;;;;;;;1734837;83;21561;-76
2021/01/27 12:04:07;;;;;;;5.95;3.90;;;;;;;;;;1804744;79;21170;-76
2021/01/27 12:06:33;;;;;;;8.05;4.65;;;;;;;;;;1817279;79;21208;-77
2021/01/27 12:09:00;;;;;;;6.83;4.58;;;;;;;;;;1826226;77;21130;-76
2021/01/27 12:11:26;;;;;;;6.53;3.87;;;;;;;;;;1857683;77;21160;-75
2021/01/27 12:13:52;;;;;;;7.08;3.85;;;;;;;;;;1857515;77;21152;-75
2021/01/27 12:16:18;;;;;;;8.75;3.90;;;;;;;;;;1857704;77;21147;-75
2021/01/27 12:18:44;;;;;;;9.18;4.33;;;;;;;;;;1857533;77;21120;-75
2021/01/27 12:21:11;;;;;;;6.60;4.17;;;;;;;;;;1857686;77;21140;-74
2021/01/27 12:23:37;;;;;;;6.33;4.20;;;;;;;;;;1857567;77;21187;-74
2021/01/27 12:26:03;;;;;;;6.92;4.10;;;;;;;;;;1857876;77;21124;-74
2021/01/27 12:28:29;;;;;;;11.75;4.30;;;;;;;;;;1857598;77;21544;-75
2021/01/27 12:30:55;;;;;;;8.45;4.20;;;;;;;;;;1857769;77;21119;-76
2021/01/27 12:33:22;;;;;;;7.10;4.10;;;;;;;;;;1857798;77;21148;-77
2021/01/27 12:35:48;;;;;;;9.60;4.08;;;;;;;;;;1857705;77;21132;-76
2021/01/27 12:38:14;;;;;;;6.15;4.05;;;;;;;;;;1857672;77;21108;-77
2021/01/27 12:40:40;;;;;;;10.93;3.85;;;;;;;;;;1857485;77;21105;-76
2021/01/27 12:43:07;;;;;;;7.35;4.42;;;;;;;;;;1857616;77;21612;-77
2021/01/27 12:45:33;;;;;;;9.83;4.47;;;;;;;;;;1857471;77;21528;-77
2021/01/27 12:47:59;;;;;;;6.78;3.85;;;;;;;;;;1852774;77;21145;-77
2021/01/27 12:50:26;;;;;;;7.72;5.03;;;;;;;;;;1834244;78;21145;-76
2021/01/27 12:52:52;;;;;;;9.08;4.40;;;;;;;;;;1834504;78;21156;-75
2021/01/27 12:55:18;;;;;;;8.33;4.62;;;;;;;;;;1834359;78;21584;-75
2021/01/27 12:57:45;;;;;;;7.80;4.72;;;;;;;;;;1834273;78;21109;-74
2021/01/27 13:00:16;;;;;;;6.17;4.00;;;;;;;;;;1834448;78;21160;-74
2021/01/27 13:02:43;;;;;;;9.05;5.45;;;;;;;;;;1834328;78;21177;-76
2021/01/27 13:05:10;;;;;;;9.58;4.37;;;;;;;;;;1834311;78;21591;-77
2021/01/27 13:07:36;;;;;;;7.17;4.42;;;;;;;;;;1834268;78;21141;-77
2021/01/27 13:10:04;;;;;;;8.70;4.92;;;;;;;;;;1802701;77;21157;-77
2021/01/27 13:12:30;;;;;;;7.67;3.62;;;;;;;;;;1791293;80;21205;-77
2021/01/27 13:14:57;;;;;;;5.17;3.22;;;;;;;;;;1790847;80;21137;-75
2021/01/27 13:17:23;;;;;;;6.10;3.47;;;;;;;;;;1790925;80;21149;-75
2021/01/27 13:19:50;;;;;;;6.67;3.52;;;;;;;;;;1791041;80;21612;-76
2021/01/27 13:22:16;;;;;;;6.72;3.98;;;;;;;;;;1791191;80;21153;-76
2021/01/27 13:24:43;;;;;;;8.40;4.47;;;;;;;;;;1790842;80;21629;-74
2021/01/27 13:27:09;;;;;;;9.00;4.22;;;;;;;;;;1791084;80;21188;-74
2021/01/27 13:29:36;;;;;;;7.42;3.12;;;;;;;;;;1790949;80;21122;-74
2021/01/27 13:32:03;;;;;;;7.15;3.98;;;;;;;;;;1790892;80;21597;-74
2021/01/27 13:34:30;;;;;;;8.43;3.50;;;;;;;;;;1791011;80;21158;-74
2021/01/27 13:36:56;;;;;;;5.42;3.12;;;;;;;;;;1791074;80;21161;-74
2021/01/27 13:39:31;;;;;;;5.20;3.12;;;;;;;;;;1791016;78;21215;-75
2021/01/27 13:41:57;;;;;;;6.17;3.50;;;;;;;;;;1791024;78;21146;-75
2021/01/27 13:44:24;;;;;;;7.10;3.25;;;;;;;;;;1791222;80;21157;-76
2021/01/27 13:46:51;;;;;;;8.75;3.80;;;;;;;;;;1790706;80;21153;-73
2021/01/27 13:49:17;;;;;;;6.55;3.72;;;;;;;;;;1796571;80;21161;-74
2021/01/27 13:51:43;;;;;;;6.20;2.75;;;;;;;;;;1799747;80;21224;-75
2021/01/27 13:54:09;;;;;;;6.72;3.30;;;;;;;;;;1799920;80;21157;-77
2021/01/27 13:56:36;;;;;;;6.65;3.72;;;;;;;;;;1799974;80;21146;-74
2021/01/27 13:59:02;;;;;;;6.10;3.30;;;;;;;;;;1800160;80;21169;-74
2021/01/27 14:01:29;;;;;;;5.60;3.15;;;;;;;;;;1799879;80;21169;-74
2021/01/27 14:03:55;;;;;;;5.83;3.83;;;;;;;;;;1768796;80;21175;-75
2021/01/27 14:06:21;;;;;;;7.60;4.05;;;;;;;;;;1800019;80;21144;-76
2021/01/27 14:08:48;;;;;;;9.38;3.72;;;;;;;;;;1803330;79;21168;-74
2021/01/27 14:11:14;;;;;;;5.72;3.58;;;;;;;;;;1788173;80;21182;-77
2021/01/27 14:13:40;;;;;;;7.12;4.10;;;;;;;;;;1821479;79;21165;-76
2021/01/27 14:16:07;;;;;;;9.53;4.42;;;;;;;;;;1787983;80;21165;-74
2021/01/27 14:18:33;;;;;;;5.90;4.17;;;;;;;;;;1821289;79;21150;-74
2021/01/27 14:20:59;;;;;;;12.55;5.30;;;;;;;;;;1787899;80;21150;-75
2021/01/27 14:23:25;;;;;;;11.08;4.70;;;;;;;;;;1810250;79;21182;-74
2021/01/27 14:25:51;;;;;;;6.67;4.00;;;;;;;;;;1801453;79;21145;-74
2021/01/27 14:28:17;;;;;;;11.33;4.85;;;;;;;;;;1801404;80;21162;-72
2021/01/27 14:30:45;;;;;;;9.58;5.05;;;;;;;;;;1801468;80;21145;-76
2021/01/27 14:33:15;;;;;;;8.60;4.58;;;;;;;;;;1801563;80;21146;-78
2021/01/27 14:35:41;;;;;;;10.63;5.22;;;;;;;;;;1801545;80;21539;-76
2021/01/27 14:38:09;;;;;;;8.43;5.40;;;;;;;;;;1801984;80;21133;-76
2021/01/27 14:40:35;;;;;;;13.45;5.95;;;;;;;;;;1801379;80;21107;-76
2021/01/27 14:43:01;;;;;;;6.78;4.28;;;;;;;;;;1801621;80;21115;-77
2021/01/27 14:45:27;;;;;;;8.23;5.47;;;;;;;;;;1801427;80;21134;-76
2021/01/27 14:47:54;;;;;;;9.03;4.97;;;;;;;;;;1801317;80;21115;-76